createdAt,value
2022-09-30T00:26:02.526Z,91.27
2022-09-30T00:28:36.657Z,87.54
2022-09-30T00:31:06.546Z,87.00
2022-09-30T00:33:34.362Z,87.23
2022-09-30T00:36:01.189Z,86.84
2022-09-30T00:38:27.981Z,87.46
2022-09-30T00:40:56.186Z,86.65
2022-09-30T00:43:51.628Z,86.60
2022-09-30T00:46:44.598Z,86.16
2022-09-30T00:49:22.480Z,86.31
2022-09-30T00:51:54.368Z,86.03
2022-09-30T00:54:28.380Z,85.77
2022-09-30T00:57:13.743Z,86.17
2022-09-30T00:59:45.168Z,86.51
2022-09-30T01:02:13.551Z,86.29
2022-09-30T01:04:42.925Z,85.23
2022-09-30T01:07:10.379Z,85.01
2022-09-30T01:09:40.539Z,85.00
2022-09-30T01:12:27.140Z,84.97
2022-09-30T01:15:23.375Z,84.96
2022-09-30T01:18:18.848Z,84.25
2022-09-30T01:21:05.783Z,83.57
2022-09-30T01:23:32.264Z,84.58
2022-09-30T01:26:43.286Z,84.43
2022-09-30T01:29:19.795Z,83.74
2022-09-30T01:32:29.425Z,82.98
2022-09-30T01:35:30.603Z,83.22
2022-09-30T01:38:23.150Z,85.93
2022-09-30T01:41:04.289Z,83.60
2022-09-30T01:44:06.439Z,88.95
2022-09-30T01:47:29.974Z,89.35
2022-09-30T01:53:50.928Z,85.19
2022-09-30T01:56:52.887Z,84.66
2022-09-30T01:59:29.507Z,84.34
2022-09-30T02:02:02.317Z,83.92
2022-09-30T02:04:33.190Z,84.84
2022-09-30T02:07:29.004Z,85.44
2022-09-30T02:10:02.916Z,86.74
2022-09-30T02:12:34.975Z,86.59
2022-09-30T02:15:11.802Z,87.06
2022-09-30T02:17:48.895Z,88.53
2022-09-30T02:20:26.469Z,86.16
2022-09-30T02:26:42.584Z,84.60
2022-09-30T02:29:22.539Z,84.04
2022-09-30T02:31:58.242Z,86.62
2022-09-30T02:34:35.217Z,86.83
2022-09-30T02:37:15.724Z,87.09
2022-09-30T02:39:51.214Z,88.57
2022-09-30T02:42:37.529Z,95.32
2022-09-30T02:45:12.328Z,97.61
2022-09-30T02:47:59.072Z,95.60
2022-09-30T02:50:44.011Z,96.23
2022-09-30T02:53:48.061Z,94.03
2022-09-30T03:00:20.655Z,94.39
2022-09-30T03:02:47.377Z,93.11
2022-09-30T03:05:14.301Z,91.79
2022-09-30T03:07:41.711Z,94.26
2022-09-30T03:10:16.564Z,93.41
2022-09-30T03:13:23.973Z,92.08
2022-09-30T03:16:02.677Z,91.67
2022-09-30T03:18:43.635Z,90.01
2022-09-30T03:21:34.456Z,91.66
2022-09-30T03:24:21.573Z,92.67
2022-09-30T03:27:06.659Z,90.39
2022-09-30T03:29:57.265Z,93.24
2022-09-30T03:32:50.176Z,91.54
2022-09-30T03:35:21.748Z,90.67
2022-09-30T03:38:16.372Z,90.04
2022-09-30T03:40:57.625Z,93.49
2022-09-30T03:43:38.597Z,94.04
2022-09-30T03:46:34.482Z,94.11
2022-09-30T03:49:05.148Z,93.81
2022-09-30T03:51:32.665Z,93.91
2022-09-30T03:53:59.519Z,96.62
2022-09-30T03:56:29.678Z,94.04
2022-09-30T03:58:56.756Z,93.35
2022-09-30T04:01:47.601Z,93.91
2022-09-30T04:04:14.339Z,93.70
2022-09-30T04:06:40.860Z,94.57
2022-09-30T04:09:07.509Z,94.54
2022-09-30T04:11:34.172Z,92.23
2022-09-30T04:14:01.615Z,91.40
2022-09-30T04:20:24.216Z,92.70
2022-09-30T04:22:50.824Z,95.96
2022-09-30T04:25:17.378Z,95.17
2022-09-30T04:27:43.929Z,94.67
2022-09-30T04:30:11.052Z,94.49
2022-09-30T04:32:37.589Z,93.03
2022-09-30T04:35:30.125Z,92.89
2022-09-30T04:37:56.796Z,93.05
2022-09-30T04:40:23.377Z,94.42
2022-09-30T04:42:50.035Z,95.09
2022-09-30T04:45:16.691Z,90.61
2022-09-30T04:47:45.333Z,88.00
2022-09-30T04:50:43.049Z,91.87
2022-09-30T04:54:22.375Z,88.98
2022-09-30T04:56:49.005Z,88.26
2022-09-30T04:59:15.575Z,87.92
2022-09-30T05:01:44.674Z,86.95
2022-09-30T05:04:12.365Z,87.47
2022-09-30T05:06:42.235Z,87.78
2022-09-30T05:09:08.949Z,91.87
2022-09-30T05:11:38.240Z,93.08
2022-09-30T05:14:09.195Z,92.12
2022-09-30T05:16:36.243Z,92.57
2022-09-30T05:19:03.256Z,92.66
2022-09-30T05:21:30.230Z,93.04
2022-09-30T05:23:57.038Z,92.52
2022-09-30T05:26:23.637Z,92.92
2022-09-30T05:28:50.235Z,90.30
2022-09-30T07:35:16.930Z,84.79
2022-09-30T07:37:43.780Z,84.98
2022-09-30T07:40:10.894Z,84.72
2022-09-30T07:42:45.591Z,84.83
2022-09-30T07:45:38.199Z,85.00
2022-09-30T07:48:24.831Z,84.89
2022-09-30T07:50:54.199Z,85.22
2022-09-30T07:53:21.103Z,84.83
2022-09-30T07:55:47.783Z,85.00
2022-09-30T07:58:14.729Z,85.82
2022-09-30T08:07:16.035Z,84.62
2022-09-30T08:09:42.891Z,84.95
2022-09-30T08:12:09.895Z,84.22
2022-09-30T08:14:36.645Z,84.64
2022-09-30T08:17:03.271Z,85.64
2022-09-30T08:19:30.724Z,86.48
2022-09-30T08:21:58.197Z,85.72
2022-09-30T08:24:26.295Z,85.11
2022-09-30T08:26:53.482Z,85.19
2022-09-30T08:29:35.721Z,85.07
2022-09-30T08:32:02.753Z,84.63
2022-09-30T08:34:47.676Z,84.51
2022-09-30T08:37:14.298Z,84.25
2022-09-30T08:39:42.434Z,84.47
2022-09-30T08:42:42.652Z,85.30
2022-09-30T08:45:13.614Z,86.25
2022-09-30T08:47:49.133Z,86.88
2022-09-30T08:54:40.531Z,86.68
2022-09-30T08:57:07.223Z,85.82
2022-09-30T08:59:45.775Z,85.42
2022-09-30T09:02:55.065Z,84.96
2022-09-30T09:05:49.929Z,85.36
2022-09-30T09:08:49.346Z,85.18
2022-09-30T09:11:41.262Z,84.80
2022-09-30T09:14:18.245Z,85.28
2022-09-30T09:16:57.574Z,85.42
2022-09-30T09:19:29.761Z,85.45
2022-09-30T09:22:01.796Z,85.67
2022-09-30T09:24:40.266Z,84.58
2022-09-30T09:27:19.865Z,84.66
2022-09-30T09:30:06.629Z,84.65
2022-09-30T09:32:34.669Z,84.05
2022-09-30T09:35:15.623Z,82.64
2022-09-30T09:38:03.873Z,82.17
2022-09-30T09:40:42.651Z,82.27
2022-09-30T09:43:27.656Z,82.48
2022-09-30T09:46:15.087Z,82.79
2022-09-30T09:48:44.897Z,83.24
2022-09-30T09:51:36.546Z,83.12
2022-09-30T09:54:08.967Z,82.94
2022-09-30T09:56:37.923Z,82.69
2022-09-30T09:59:09.486Z,82.63
2022-09-30T10:01:54.634Z,83.14
2022-09-30T10:04:29.850Z,82.82
2022-09-30T10:07:00.638Z,82.57
2022-09-30T10:09:36.243Z,82.81
2022-09-30T10:12:05.803Z,82.77
2022-09-30T10:15:00.232Z,82.87
2022-09-30T10:17:33.169Z,82.63
2022-09-30T10:20:06.625Z,82.65
2022-09-30T10:22:35.134Z,82.31
2022-09-30T10:25:23.679Z,81.79
2022-09-30T10:28:16.260Z,82.01
2022-09-30T10:30:51.163Z,81.85
2022-09-30T10:33:31.365Z,82.74
2022-09-30T10:36:06.227Z,83.48
2022-09-30T10:38:34.772Z,82.99
2022-09-30T10:41:03.680Z,82.49
2022-09-30T10:43:52.410Z,81.93
2022-09-30T10:46:39.691Z,81.50
2022-09-30T10:49:24.751Z,81.47
2022-09-30T10:51:51.682Z,81.53
2022-09-30T10:54:50.632Z,81.17
2022-09-30T10:57:21.048Z,80.68
2022-09-30T10:59:48.974Z,80.44
2022-09-30T11:02:34.650Z,80.36
2022-09-30T11:05:01.222Z,80.65
2022-09-30T11:07:44.367Z,80.69
2022-09-30T11:10:48.398Z,80.78
2022-09-30T11:13:32.005Z,80.83
2022-09-30T11:16:37.875Z,81.26
2022-09-30T11:19:07.351Z,81.09
2022-09-30T11:21:53.096Z,80.91
2022-09-30T11:24:25.503Z,80.20
2022-09-30T11:27:24.964Z,80.02
2022-09-30T11:30:09.182Z,79.94
2022-09-30T11:33:07.521Z,79.79
2022-09-30T11:35:34.065Z,79.30
2022-09-30T11:38:06.250Z,79.41
2022-09-30T11:40:35.568Z,78.75
2022-09-30T11:43:24.192Z,78.78
2022-09-30T11:46:21.307Z,78.89
2022-09-30T11:49:03.460Z,78.80
2022-09-30T11:51:40.270Z,79.11
2022-09-30T11:54:20.618Z,78.89
2022-09-30T11:57:06.448Z,78.88
2022-09-30T11:59:43.714Z,78.44
2022-09-30T12:02:29.232Z,78.90
2022-09-30T12:05:01.067Z,78.47
2022-09-30T12:07:40.127Z,78.35
2022-09-30T12:10:34.483Z,76.32
2022-09-30T12:13:13.894Z,76.42
2022-09-30T12:15:46.085Z,76.91
2022-09-30T12:18:27.619Z,77.35
2022-09-30T12:20:58.506Z,76.12
2022-09-30T12:23:51.163Z,75.49
2022-09-30T12:26:18.397Z,75.52
2022-09-30T12:29:22.019Z,74.92
2022-09-30T12:32:09.536Z,74.27
2022-09-30T12:34:46.304Z,73.82
2022-09-30T12:41:36.741Z,73.39
2022-09-30T12:44:47.952Z,73.87
2022-09-30T12:47:52.879Z,72.95
2022-09-30T12:50:24.550Z,73.55
2022-09-30T12:52:51.842Z,73.51
2022-09-30T12:55:25.375Z,73.23
2022-09-30T12:57:56.051Z,73.15
2022-09-30T13:00:31.491Z,73.37
2022-09-30T13:03:04.854Z,73.68
2022-09-30T13:05:31.357Z,72.98
2022-09-30T13:08:04.449Z,72.75
2022-09-30T13:10:38.233Z,73.15
2022-09-30T13:13:10.907Z,72.83
2022-09-30T13:15:37.405Z,72.95
2022-09-30T13:18:31.262Z,72.84
2022-09-30T13:21:21.436Z,72.69
2022-09-30T13:23:50.285Z,72.28
2022-09-30T13:26:22.623Z,72.29
2022-09-30T13:28:50.799Z,72.23
2022-09-30T13:31:22.793Z,72.22
2022-09-30T13:34:04.298Z,72.37
2022-09-30T13:36:52.514Z,72.47
2022-09-30T13:39:43.745Z,73.79
2022-09-30T13:42:20.607Z,73.44
2022-09-30T13:45:29.355Z,73.83
2022-09-30T13:48:15.292Z,73.07
2022-09-30T13:50:46.891Z,73.31
2022-09-30T13:53:20.941Z,73.51
2022-09-30T13:55:50.929Z,72.81
2022-09-30T13:58:19.318Z,72.26
2022-09-30T14:00:48.710Z,72.20
2022-09-30T14:03:26.970Z,72.30
2022-09-30T14:06:01.005Z,72.18
2022-09-30T14:08:34.783Z,71.80
2022-09-30T14:11:27.110Z,71.28
2022-09-30T14:14:16.164Z,71.29
2022-09-30T14:16:58.336Z,71.19
2022-09-30T14:19:43.503Z,71.09
2022-09-30T14:22:11.452Z,71.19
2022-09-30T14:24:40.377Z,70.89
2022-09-30T14:27:20.818Z,70.90
2022-09-30T14:30:11.520Z,70.45
2022-09-30T14:32:46.520Z,70.59
2022-09-30T14:35:23.625Z,70.01
2022-09-30T14:37:54.835Z,70.06
2022-09-30T14:40:29.682Z,70.26
2022-09-30T14:43:02.896Z,69.75
2022-09-30T14:45:33.128Z,69.40
2022-09-30T14:48:15.515Z,69.16
2022-09-30T14:50:50.568Z,69.14
2022-09-30T14:53:28.858Z,69.14
2022-09-30T14:56:00.102Z,69.26
2022-09-30T14:58:31.239Z,69.27
2022-09-30T18:19:49.406Z,75.01
2022-09-30T18:48:40.936Z,74.51
2022-09-30T18:51:08.872Z,74.01
2022-09-30T18:53:35.610Z,75.18
2022-09-30T18:56:04.385Z,75.58
2022-09-30T19:04:07.803Z,75.70
2022-09-30T19:06:34.892Z,75.12
2022-09-30T19:09:02.069Z,74.87
2022-09-30T19:11:30.753Z,74.97
2022-09-30T19:31:34.787Z,74.21
2022-09-30T19:34:02.631Z,74.24
2022-09-30T19:36:31.161Z,74.85
2022-09-30T19:47:06.124Z,75.63
2022-09-30T19:49:32.829Z,75.29
2022-09-30T19:51:59.816Z,74.88
2022-09-30T19:55:30.416Z,74.82
2022-09-30T19:58:37.411Z,74.80
2022-09-30T20:01:05.218Z,74.68
2022-09-30T20:03:32.828Z,75.52
2022-09-30T20:06:05.729Z,75.25
2022-09-30T20:08:33.323Z,75.29
2022-09-30T20:11:14.818Z,75.27
2022-09-30T20:13:42.233Z,76.22
2022-09-30T20:16:14.464Z,76.48
2022-09-30T20:18:43.218Z,76.54
2022-09-30T20:21:16.440Z,76.30
2022-09-30T20:23:45.870Z,76.38
2022-09-30T20:26:15.348Z,77.32
2022-09-30T20:28:42.284Z,77.44
2022-09-30T20:31:12.206Z,77.40
2022-09-30T20:36:14.046Z,77.12
2022-09-30T20:38:40.621Z,76.77
2022-09-30T20:41:07.765Z,77.80
2022-09-30T20:43:43.757Z,78.84
2022-09-30T20:46:10.380Z,78.52
2022-09-30T20:48:39.127Z,78.40
2022-09-30T20:51:14.515Z,78.16
2022-09-30T20:53:44.501Z,77.99
2022-09-30T20:56:15.244Z,77.68
2022-09-30T21:01:57.878Z,77.60
2022-09-30T21:04:40.890Z,77.95
2022-09-30T21:07:07.537Z,77.63
2022-09-30T21:09:34.896Z,77.53
2022-09-30T21:12:01.981Z,77.25
2022-09-30T21:14:28.597Z,77.07
2022-09-30T21:16:55.160Z,76.95
2022-09-30T21:19:21.724Z,77.12
2022-09-30T21:21:48.331Z,78.33
2022-09-30T21:24:16.347Z,77.17
2022-09-30T21:26:43.308Z,76.58
2022-09-30T21:29:09.891Z,78.01
2022-09-30T21:31:37.838Z,77.05
2022-09-30T21:34:23.064Z,76.74
2022-09-30T21:36:49.733Z,76.88
2022-09-30T21:39:16.383Z,76.58
2022-09-30T21:41:43.020Z,76.37
2022-09-30T21:44:09.871Z,77.27
2022-09-30T21:46:36.571Z,80.90
2022-09-30T22:02:39.944Z,78.86
2022-09-30T22:05:07.374Z,79.00
2022-09-30T22:35:06.859Z,80.44
2022-09-30T22:37:51.687Z,80.44
2022-09-30T22:40:18.499Z,80.59
2022-09-30T22:42:46.477Z,80.03
2022-09-30T23:21:09.686Z,79.55
2022-09-30T23:23:38.168Z,79.71
2022-09-30T23:26:06.099Z,79.20
2022-09-30T23:28:33.094Z,78.87
2022-09-30T23:31:11.470Z,78.44
2022-09-30T23:33:39.989Z,78.99
2022-09-30T23:36:07.344Z,79.31
2022-09-30T23:38:34.009Z,78.94
2022-09-30T23:41:00.576Z,79.54
2022-09-30T23:43:30.165Z,81.06
2022-09-30T23:46:07.277Z,81.71
2022-09-30T23:48:58.888Z,81.23
2022-09-30T23:51:25.454Z,81.36
2022-09-30T23:53:52.116Z,81.62
2022-09-30T23:56:19.629Z,81.77
2022-09-30T23:58:47.458Z,80.79
